Onde está Quinta de Mor en Portugal?

 

Quinta de Mor está situado na região Lisboa em Portugal!

Buscar o nome de uma cidade:

Quintanar de la Orden, Quintarong, Quinalangay Viejo, Quinuilla, Quinchura

Aqui você vai encontrar a localização de Quinta de Mor em um mapa.
Para ver como ele atualmente parece, abaixo estão algumas fotos da região, com webcams online.
Você também pode encontrar a distância para as principais cidades da região e de cidades do resto do Portugal.

Cidades do mundo
Cidades em Portugal que também são encontradas em outros países do mundo.


Onde está Quinta de Mor no mapa?




Webcams perto Quinta de Mor

Benavente › North-East: Santarém - AIrport, METAR: BENAV 180005Z 36004KT 17/14 Q1015.


Benavente › North-East: Santarém - AIrport, METAR: BENAV 180005Z 36004KT 17/14 Q1015 - Dia
Actual
Benavente › North-East: Santarém - AIrport, METAR: BENAV 180005Z 36004KT 17/14 Q1015 - Actual

Nossa Senhora do Populo, Coto e Sao Gregorio: Caldas da Rainha.


Nossa Senhora do Populo, Coto e Sao Gregorio: Caldas da Rainha - Dia
Actual
Nossa Senhora do Populo, Coto e Sao Gregorio: Caldas da Rainha - Actual

Silveira › West.


Silveira › West - Dia
Actual
Silveira › West - Actual

Webcams provided by windy.comadd a webcam


Distâncias

Onde está Quinta de Mor em relação a outros lugares?

Top 10 cidades em Lisboa e distância de Quinta de Mor.

Cidade#Populaçãokmmilhas
Lisbon15177985132
Amadora21788565132
Queluz31033985333
Loures4662304226
Rio de Mouro5546955534
Odivelas6546234528
São Domingos de Rana7467176138
Cascais8364366842
Alcabideche9333156339
Póvoa de Santa Iria10289003421

Top 10 cidades em Portugal e distância de Quinta de Mor.

Cidade # Populaçãokmmilhas
Lisbon15177985132
Porto2249630225140
Amadora31788565132
Braga4121393270168
Setúbal51171096842
Coimbra610658012678
Queluz71033985333
Funchal8980411020634
Vila Nova de Gaia970810222138
Loures10662304226


Info

Estatística e Geografia

Portugal é composta de 15299 cidades em 20 regiões.

A região de Lisboa tem 1032 cidades.

Quinta de Mor é o número 812 na região Lisboa.

A cidade é o número 11065 na Portugal.

Onde está Quinta de Mor en Portugal?